createdAt,value
2023-05-09T00:00:37.004Z,26.39
2023-05-09T00:10:40.307Z,26.37
2023-05-09T00:20:43.493Z,26.37
2023-05-09T00:41:38.603Z,26.36
2023-05-09T00:51:41.764Z,26.37
2023-05-09T01:01:45.150Z,26.36
2023-05-09T01:11:48.476Z,26.36
2023-05-09T01:21:51.793Z,26.35
2023-05-09T01:31:55.037Z,26.36
2023-05-09T01:41:58.340Z,26.32
2023-05-09T01:52:01.528Z,26.32
2023-05-09T02:02:04.875Z,26.29
2023-05-09T02:12:08.063Z,26.31
2023-05-09T02:22:11.380Z,26.31
2023-05-09T02:32:14.565Z,26.28
2023-05-09T02:42:17.876Z,26.29
2023-05-09T02:52:21.042Z,26.31
2023-05-09T03:02:24.416Z,26.29
2023-05-09T03:12:27.651Z,26.28
2023-05-09T03:22:30.944Z,26.27
2023-05-09T03:32:34.186Z,26.25
2023-05-09T03:42:37.512Z,26.25
2023-05-09T03:52:40.664Z,26.27
2023-05-09T04:02:44.132Z,26.22
2023-05-09T04:12:47.439Z,26.24
2023-05-09T04:22:50.781Z,26.25
2023-05-09T04:32:53.973Z,26.28
2023-05-09T04:42:57.267Z,26.27
2023-05-09T04:53:00.455Z,26.31
2023-05-09T05:03:03.791Z,26.32
2023-05-09T05:13:07.152Z,26.35
2023-05-09T05:23:10.522Z,26.39
2023-05-09T05:33:13.736Z,26.42
2023-05-09T05:43:17.038Z,26.44
2023-05-09T05:53:20.227Z,26.44
2023-05-09T06:03:23.576Z,26.47
2023-05-09T06:13:26.854Z,26.50
2023-05-09T06:23:30.237Z,26.52
2023-05-09T06:33:33.396Z,26.52
2023-05-09T06:43:36.697Z,26.55
2023-05-09T06:53:39.861Z,26.57
2023-05-09T07:03:43.174Z,26.59
2023-05-09T07:13:46.353Z,26.59
2023-05-09T07:23:49.653Z,26.62
2023-05-09T07:33:52.797Z,26.62
2023-05-09T07:43:56.095Z,26.64
2023-05-09T07:53:59.248Z,26.64
2023-05-09T08:04:02.627Z,26.64
2023-05-09T08:14:05.912Z,26.64
2023-05-09T08:24:09.350Z,26.64
2023-05-09T08:34:12.515Z,26.68
2023-05-09T08:44:15.836Z,26.72
2023-05-09T08:54:20.642Z,26.76
2023-05-09T09:04:22.878Z,26.79
2023-05-09T09:14:26.093Z,26.80
2023-05-09T09:24:29.382Z,26.80
2023-05-09T09:34:32.528Z,26.80
2023-05-09T09:44:35.816Z,26.83
2023-05-09T09:54:38.966Z,26.83
2023-05-09T10:04:42.271Z,26.86
2023-05-09T10:14:45.428Z,26.87
2023-05-09T10:24:48.710Z,26.87
2023-05-09T10:34:51.882Z,26.91
2023-05-09T10:44:55.171Z,26.92
2023-05-09T10:54:58.332Z,26.95
2023-05-09T11:05:01.618Z,26.96
2023-05-09T11:15:04.845Z,26.98
2023-05-09T11:25:08.130Z,26.99
2023-05-09T11:35:11.306Z,27.02
2023-05-09T11:45:14.899Z,27.02
2023-05-09T11:55:18.354Z,27.02
2023-05-09T12:05:21.852Z,27.04
2023-05-09T12:15:25.015Z,27.05
2023-05-09T12:25:28.316Z,27.05
2023-05-09T12:35:31.465Z,27.06
2023-05-09T12:45:34.753Z,27.13
2023-05-09T12:55:37.894Z,27.11
2023-05-09T13:05:41.199Z,27.10
2023-05-09T13:15:44.348Z,27.11
2023-05-09T13:25:47.660Z,27.11
2023-05-09T13:35:50.854Z,27.10
2023-05-09T13:45:54.164Z,27.11
2023-05-09T13:55:57.320Z,27.09
2023-05-09T14:06:00.624Z,27.09
2023-05-09T14:16:03.805Z,27.06
2023-05-09T14:26:07.101Z,27.09
2023-05-09T14:36:10.423Z,27.09
2023-05-09T14:46:13.723Z,27.06
2023-05-09T14:56:16.892Z,27.05
2023-05-09T15:06:20.190Z,27.06
2023-05-09T15:16:23.466Z,27.06
2023-05-09T15:26:26.764Z,27.09
2023-05-09T15:36:29.926Z,27.09
2023-05-09T15:46:33.247Z,27.09
2023-05-09T15:56:36.441Z,27.09
2023-05-09T16:06:39.727Z,27.10
2023-05-09T16:16:42.863Z,27.29
2023-05-09T16:26:46.152Z,27.38
2023-05-09T16:36:49.312Z,27.39
2023-05-09T16:46:52.650Z,27.41
2023-05-09T16:56:55.796Z,27.41
2023-05-09T17:06:59.092Z,27.38
2023-05-09T17:17:02.290Z,27.38
2023-05-09T17:27:05.606Z,27.36
2023-05-09T17:37:08.759Z,27.35
2023-05-09T17:47:12.062Z,27.33
2023-05-09T17:57:15.211Z,27.33
2023-05-09T18:07:18.509Z,27.31
2023-05-09T18:17:21.673Z,27.33
2023-05-09T18:27:24.958Z,27.32
2023-05-09T18:37:28.103Z,27.31
2023-05-09T18:47:31.346Z,27.29
2023-05-09T18:57:34.524Z,27.31
2023-05-09T19:07:37.821Z,27.31
2023-05-09T19:17:41.032Z,27.29
2023-05-09T19:27:44.275Z,27.29
2023-05-09T19:37:47.467Z,27.29
2023-05-09T19:47:50.723Z,27.29
2023-05-09T19:57:53.921Z,27.29
2023-05-09T20:07:57.122Z,27.29
2023-05-09T20:18:00.325Z,27.29
2023-05-09T20:28:03.534Z,27.31
2023-05-09T20:38:06.711Z,27.32
2023-05-09T20:48:09.958Z,27.31
2023-05-09T20:58:13.095Z,27.31
2023-05-09T21:08:16.293Z,27.31
2023-05-09T21:18:19.468Z,27.31
2023-05-09T21:28:22.657Z,27.29
2023-05-09T21:38:25.841Z,27.31
2023-05-09T21:48:29.067Z,27.29
2023-05-09T21:58:32.247Z,27.32
2023-05-09T22:08:35.455Z,27.32
2023-05-09T22:18:38.620Z,27.32
2023-05-09T22:28:41.833Z,27.32
2023-05-09T22:38:44.984Z,27.29
2023-05-09T22:48:48.183Z,27.31
2023-05-09T22:58:51.339Z,27.29
2023-05-09T23:08:54.530Z,27.29
2023-05-09T23:18:57.707Z,27.28
2023-05-09T23:29:00.917Z,27.28
2023-05-09T23:39:04.071Z,27.28
2023-05-09T23:49:07.254Z,27.26
2023-05-09T23:59:10.404Z,27.24
